createdAt,value
2023-05-22T00:01:59.340Z,13.28
2023-05-22T00:07:06.606Z,13.19
2023-05-22T00:12:10.803Z,13.11
2023-05-22T00:17:15.291Z,13.05
2023-05-22T00:22:21.245Z,12.94
2023-05-22T00:27:25.375Z,12.85
2023-05-22T00:32:29.921Z,12.75
2023-05-22T00:37:35.388Z,12.53
2023-05-22T00:42:40.592Z,12.54
2023-05-22T00:47:45.110Z,12.49
2023-05-22T00:52:50.648Z,12.41
2023-05-22T00:57:55.001Z,12.24
2023-05-22T01:02:59.727Z,12.01
2023-05-22T01:08:07.865Z,11.85
2023-05-22T01:13:20.159Z,11.59
2023-05-22T01:18:32.238Z,11.49
2023-05-22T01:24:13.904Z,11.47
2023-05-22T01:29:36.511Z,11.45
2023-05-22T01:34:43.921Z,11.30
2023-05-22T01:39:48.212Z,11.21
2023-05-22T01:44:52.732Z,11.08
2023-05-22T01:49:58.764Z,11.03
2023-05-22T01:55:08.929Z,11.05
2023-05-22T02:00:16.305Z,10.99
2023-05-22T02:05:24.330Z,10.86
2023-05-22T02:10:29.417Z,10.94
2023-05-22T02:15:34.334Z,10.95
2023-05-22T02:20:40.080Z,10.88
2023-05-22T02:25:44.087Z,10.86
2023-05-22T02:30:48.188Z,10.89
2023-05-22T02:35:54.827Z,10.89
2023-05-22T02:40:58.734Z,11.00
2023-05-22T02:46:02.862Z,11.07
2023-05-22T02:51:09.267Z,11.10
2023-05-22T02:56:13.225Z,11.18
2023-05-22T03:01:17.510Z,11.29
2023-05-22T03:06:23.259Z,11.33
2023-05-22T03:11:27.196Z,11.40
2023-05-22T03:16:32.906Z,11.52
2023-05-22T03:21:38.838Z,11.59
2023-05-22T03:26:43.901Z,11.64
2023-05-22T03:31:55.236Z,11.69
2023-05-22T03:37:00.757Z,11.77
2023-05-22T03:42:05.552Z,11.82
2023-05-22T03:47:09.620Z,11.83
2023-05-22T03:52:15.493Z,11.90
2023-05-22T03:57:20.813Z,12.00
2023-05-22T04:02:26.472Z,12.15
2023-05-22T04:07:32.716Z,12.24
2023-05-22T04:12:36.880Z,12.38
2023-05-22T04:17:41.731Z,12.55
2023-05-22T04:22:48.911Z,12.68
2023-05-22T04:27:52.932Z,12.85
2023-05-22T04:32:57.853Z,13.00
2023-05-22T04:38:03.697Z,13.18
2023-05-22T04:43:10.222Z,13.16
2023-05-22T04:48:15.389Z,13.15
2023-05-22T04:53:21.277Z,13.25
2023-05-22T04:58:27.527Z,13.42
2023-05-22T05:03:33.964Z,13.66
2023-05-22T05:08:39.697Z,13.85
2023-05-22T05:13:43.777Z,14.00
2023-05-22T05:18:47.737Z,14.22
2023-05-22T05:23:53.803Z,14.27
2023-05-22T05:28:58.323Z,14.56
2023-05-22T05:34:10.473Z,14.54
2023-05-22T05:39:30.537Z,14.63
2023-05-22T05:44:37.675Z,14.90
2023-05-22T05:49:43.596Z,15.13
2023-05-22T05:54:49.354Z,15.34
2023-05-22T05:59:57.372Z,15.44
2023-05-22T06:05:19.277Z,15.76
2023-05-22T06:10:27.567Z,16.02
2023-05-22T06:15:36.311Z,16.30
2023-05-22T06:20:40.444Z,16.58
2023-05-22T06:25:46.865Z,16.87
2023-05-22T06:30:51.625Z,17.18
2023-05-22T06:35:58.584Z,17.41
2023-05-22T06:41:04.198Z,17.65
2023-05-22T06:46:08.622Z,17.86
2023-05-22T06:51:32.977Z,18.16
2023-05-22T06:56:48.134Z,18.39
2023-05-22T07:01:53.916Z,18.69
2023-05-22T07:07:09.422Z,18.99
2023-05-22T07:12:14.860Z,19.20
2023-05-22T07:17:18.932Z,19.26
2023-05-22T07:22:22.903Z,19.52
2023-05-22T07:27:28.523Z,19.49
2023-05-22T07:32:32.527Z,19.57
2023-05-22T07:37:39.410Z,19.58
2023-05-22T07:42:45.135Z,19.64
2023-05-22T07:47:50.570Z,19.61
2023-05-22T07:52:54.796Z,19.89
2023-05-22T07:58:04.178Z,19.73
2023-05-22T08:03:13.720Z,19.64
2023-05-22T08:08:17.906Z,19.90
2023-05-22T08:13:23.526Z,20.03
2023-05-22T08:18:29.240Z,20.31
2023-05-22T08:23:36.273Z,20.50
2023-05-22T08:28:44.326Z,20.77
2023-05-22T08:33:48.817Z,20.56
2023-05-22T08:38:52.921Z,20.52
2023-05-22T08:43:58.473Z,20.52
2023-05-22T08:49:03.676Z,20.74
2023-05-22T08:54:08.325Z,21.03
2023-05-22T08:59:14.127Z,21.18
2023-05-22T09:04:18.189Z,20.97
2023-05-22T09:09:22.423Z,20.83
2023-05-22T09:14:27.900Z,21.05
2023-05-22T09:19:31.886Z,21.10
2023-05-22T09:24:39.626Z,20.93
2023-05-22T09:29:52.523Z,21.08
2023-05-22T09:35:02.901Z,21.43
2023-05-22T09:40:08.204Z,21.62
2023-05-22T09:45:14.069Z,21.72
2023-05-22T09:50:18.587Z,21.96
2023-05-22T09:55:23.943Z,21.41
2023-05-22T10:00:30.130Z,21.28
2023-05-22T10:05:34.312Z,21.43
2023-05-22T10:10:39.918Z,21.75
2023-05-22T10:15:46.184Z,21.60
2023-05-22T10:20:52.007Z,21.83
2023-05-22T10:25:56.975Z,22.37
2023-05-22T10:31:06.018Z,22.66
2023-05-22T10:36:46.004Z,23.08
2023-05-22T10:41:51.770Z,22.76
2023-05-22T10:46:57.035Z,22.09
2023-05-22T10:52:01.355Z,22.35
2023-05-22T10:57:11.377Z,22.79
2023-05-22T11:02:29.898Z,22.97
2023-05-22T11:07:41.430Z,23.28
2023-05-22T11:12:45.773Z,23.75
2023-05-22T11:17:51.896Z,23.92
2023-05-22T11:22:58.159Z,23.53
2023-05-22T11:28:04.529Z,23.16
2023-05-22T11:33:10.120Z,23.16
2023-05-22T11:38:15.892Z,22.89
2023-05-22T11:43:29.890Z,22.16
2023-05-22T11:48:36.430Z,22.51
2023-05-22T11:53:42.298Z,23.39
2023-05-22T11:58:46.451Z,23.90
2023-05-22T12:03:52.121Z,23.92
2023-05-22T12:08:56.205Z,24.12
2023-05-22T12:14:03.901Z,23.96
2023-05-22T12:19:09.839Z,24.71
2023-05-22T12:24:13.780Z,24.58
2023-05-22T12:29:17.925Z,25.18
2023-05-22T12:34:23.911Z,24.47
2023-05-22T12:39:29.556Z,24.94
2023-05-22T12:44:33.722Z,24.70
2023-05-22T12:49:38.939Z,23.79
2023-05-22T12:54:42.914Z,25.05
2023-05-22T12:59:46.767Z,25.76
2023-05-22T13:04:52.487Z,25.30
2023-05-22T13:09:56.751Z,25.11
2023-05-22T13:15:01.008Z,25.34
2023-05-22T13:20:08.180Z,25.23
2023-05-22T13:25:13.408Z,26.04
2023-05-22T13:30:17.349Z,25.88
2023-05-22T13:35:22.711Z,26.13
2023-05-22T13:40:26.739Z,26.32
2023-05-22T13:45:31.214Z,24.97
2023-05-22T13:50:36.596Z,24.35
2023-05-22T13:55:40.855Z,24.15
2023-05-22T14:00:45.408Z,24.11
2023-05-22T14:05:50.971Z,25.24
2023-05-22T14:10:55.263Z,25.12
2023-05-22T14:15:59.379Z,25.81
2023-05-22T14:21:05.122Z,26.09
2023-05-22T14:26:09.051Z,26.20
2023-05-22T14:31:13.208Z,26.93
2023-05-22T14:36:20.350Z,27.24
2023-05-22T14:41:26.358Z,27.08
2023-05-22T14:48:26.456Z,26.86
2023-05-22T14:53:31.046Z,26.47
2023-05-22T14:58:35.545Z,25.52
2023-05-22T15:03:41.555Z,25.95
2023-05-22T15:08:46.211Z,26.11
2023-05-22T15:13:50.917Z,25.20
2023-05-22T15:18:56.538Z,25.23
2023-05-22T15:24:01.362Z,24.78
2023-05-22T15:29:06.112Z,24.84
2023-05-22T15:34:11.951Z,24.65
2023-05-22T15:39:16.782Z,25.35
2023-05-22T15:44:21.048Z,24.78
2023-05-22T15:49:28.586Z,24.20
2023-05-22T15:54:34.430Z,23.75
2023-05-22T15:59:38.747Z,23.26
2023-05-22T16:04:44.306Z,23.22
2023-05-22T16:09:50.268Z,22.93
2023-05-22T16:15:00.211Z,22.53
2023-05-22T16:20:09.019Z,22.34
2023-05-22T16:25:13.839Z,22.34
2023-05-22T16:30:18.657Z,22.10
2023-05-22T16:35:24.381Z,21.89
2023-05-22T16:40:28.752Z,21.77
2023-05-22T16:45:33.179Z,21.41
2023-05-22T16:50:39.063Z,21.26
2023-05-22T16:55:43.665Z,21.03
2023-05-22T17:00:47.894Z,20.69
2023-05-22T17:05:53.553Z,20.52
2023-05-22T17:10:58.134Z,20.48
2023-05-22T17:16:02.183Z,20.38
2023-05-22T17:21:09.154Z,20.18
2023-05-22T17:26:14.640Z,20.01
2023-05-22T17:31:18.895Z,19.84
2023-05-22T17:36:24.599Z,19.50
2023-05-22T17:41:28.862Z,19.40
2023-05-22T17:46:33.217Z,19.22
2023-05-22T17:51:38.907Z,19.14
2023-05-22T17:56:43.276Z,18.98
2023-05-22T18:01:48.022Z,18.81
2023-05-22T18:06:53.734Z,18.53
2023-05-22T18:12:00.836Z,18.25
2023-05-22T18:17:05.439Z,17.82
2023-05-22T18:22:10.997Z,17.51
2023-05-22T18:27:15.372Z,17.19
2023-05-22T18:32:19.580Z,16.93
2023-05-22T18:37:26.148Z,16.57
2023-05-22T18:42:30.392Z,16.33
2023-05-22T18:47:34.633Z,16.12
2023-05-22T18:52:40.935Z,15.92
2023-05-22T18:57:45.092Z,15.59
2023-05-22T19:02:49.294Z,15.47
2023-05-22T19:07:57.858Z,15.34
2023-05-22T19:13:02.287Z,15.21
2023-05-22T19:18:06.946Z,15.19
2023-05-22T19:23:13.765Z,14.92
2023-05-22T19:28:18.089Z,14.85
2023-05-22T19:33:25.419Z,14.75
2023-05-22T19:38:31.161Z,14.67
2023-05-22T19:43:35.590Z,14.56
2023-05-22T19:48:40.026Z,14.42
2023-05-22T19:53:45.637Z,14.28
2023-05-22T19:58:49.965Z,14.09
2023-05-22T20:03:56.425Z,14.02
2023-05-22T20:09:05.882Z,13.94
2023-05-22T20:14:11.884Z,13.77
2023-05-22T20:19:17.700Z,13.65
2023-05-22T20:24:25.124Z,13.51
2023-05-22T20:29:29.589Z,13.42
2023-05-22T20:34:34.033Z,13.45
2023-05-22T20:39:41.713Z,13.56
2023-05-22T20:44:46.333Z,13.54
2023-05-22T20:49:50.949Z,13.56
2023-05-22T20:54:56.967Z,13.65
2023-05-22T21:00:01.390Z,13.73
2023-05-22T21:05:07.886Z,13.82
2023-05-22T21:10:13.995Z,13.86
2023-05-22T21:15:19.013Z,13.95
2023-05-22T21:20:23.627Z,13.98
2023-05-22T21:25:29.168Z,14.02
2023-05-22T21:30:33.735Z,14.04
2023-05-22T21:35:38.400Z,14.03
2023-05-22T21:40:43.977Z,14.02
2023-05-22T21:45:48.427Z,13.96
2023-05-22T21:50:52.786Z,13.94
2023-05-22T21:55:58.559Z,13.79
2023-05-22T22:01:03.286Z,13.68
2023-05-22T22:06:08.350Z,13.54
2023-05-22T22:11:13.713Z,13.33
2023-05-22T22:16:18.522Z,13.18
2023-05-22T22:21:22.813Z,13.02
2023-05-22T22:26:30.973Z,12.89
2023-05-22T22:31:36.132Z,12.81
2023-05-22T22:36:41.300Z,12.81
2023-05-22T22:41:46.849Z,12.74
2023-05-22T22:46:51.740Z,12.80
2023-05-22T22:51:56.591Z,12.78
2023-05-22T22:57:02.547Z,12.78
2023-05-22T23:02:07.120Z,12.84
2023-05-22T23:07:11.517Z,12.85
2023-05-22T23:12:17.144Z,12.93
2023-05-22T23:17:22.131Z,12.95
2023-05-22T23:22:26.346Z,12.95
2023-05-22T23:27:31.914Z,12.95
2023-05-22T23:32:36.360Z,12.90
2023-05-22T23:37:40.725Z,12.89
2023-05-22T23:42:46.489Z,12.86
2023-05-22T23:47:50.697Z,12.79
2023-05-22T23:52:55.238Z,12.74
2023-05-22T23:58:00.855Z,12.71
